Terminal Aerodrome Forecast
Issued by NWS

Home | Current Version | Previous Version | Graphics & Text | Print | Product List | Glossary On
Versions: 1 2 3 4 5 6 7 8 9 10 11 12 13 14 15 16
000
FTUS42 KMHX 230520
TAFPGV
TAF
KPGV 230520Z 2306/2406 10005KT P6SM BKN140
     FM231200 09009KT P6SM BKN120
     FM231500 11014G20KT P6SM SCT035
     FM240000 11013KT P6SM VCSH OVC029
     FM240200 10013KT 4SM -RA OVC015
      AMD LTD TO CLD VIS AND WIND=

USA.gov is the U.S. government's official web portal to all federal, state and local government web resources and services.